sensor_id;sensor_type;location;lat;lon;timestamp;temperature;humidity
13808;DHT22;40769;51.512;5.494;2022-12-07T00:01:34;8.00;99.90
13808;DHT22;40769;51.512;5.494;2022-12-07T00:04:02;7.90;99.90
13808;DHT22;40769;51.512;5.494;2022-12-07T00:06:39;7.90;99.90
13808;DHT22;40769;51.512;5.494;2022-12-07T00:09:07;7.90;99.90
13808;DHT22;40769;51.512;5.494;2022-12-07T00:11:33;7.80;99.90
13808;DHT22;40769;51.512;5.494;2022-12-07T00:14:01;7.80;99.90
13808;DHT22;40769;51.512;5.494;2022-12-07T00:16:29;7.70;99.90
13808;DHT22;40769;51.512;5.494;2022-12-07T00:18:56;7.70;99.90
13808;DHT22;40769;51.512;5.494;2022-12-07T00:21:27;7.60;99.90
13808;DHT22;40769;51.512;5.494;2022-12-07T00:23:54;7.60;99.90
13808;DHT22;40769;51.512;5.494;2022-12-07T00:26:22;7.60;99.90
13808;DHT22;40769;51.512;5.494;2022-12-07T00:28:54;7.70;99.90
13808;DHT22;40769;51.512;5.494;2022-12-07T00:31:22;7.50;99.90
13808;DHT22;40769;51.512;5.494;2022-12-07T00:33:48;7.50;99.90
13808;DHT22;40769;51.512;5.494;2022-12-07T00:36:16;7.40;99.90
13808;DHT22;40769;51.512;5.494;2022-12-07T00:38:42;7.40;99.90
13808;DHT22;40769;51.512;5.494;2022-12-07T00:41:12;7.40;99.90
13808;DHT22;40769;51.512;5.494;2022-12-07T00:43:38;7.40;99.90
13808;DHT22;40769;51.512;5.494;2022-12-07T00:46:04;7.30;99.90
13808;DHT22;40769;51.512;5.494;2022-12-07T00:48:29;7.30;99.90
13808;DHT22;40769;51.512;5.494;2022-12-07T00:50:55;7.30;99.90
13808;DHT22;40769;51.512;5.494;2022-12-07T00:53:21;7.30;99.90
13808;DHT22;40769;51.512;5.494;2022-12-07T00:55:47;7.40;99.90
13808;DHT22;40769;51.512;5.494;2022-12-07T00:58:13;7.40;99.90
13808;DHT22;40769;51.512;5.494;2022-12-07T01:00:40;7.50;99.90
13808;DHT22;40769;51.512;5.494;2022-12-07T01:03:08;7.50;99.90
13808;DHT22;40769;51.512;5.494;2022-12-07T01:05:34;7.40;99.90
13808;DHT22;40769;51.512;5.494;2022-12-07T01:08:00;7.40;99.90
13808;DHT22;40769;51.512;5.494;2022-12-07T01:10:26;6.70;99.90
13808;DHT22;40769;51.512;5.494;2022-12-07T01:12:51;7.50;99.90
13808;DHT22;40769;51.512;5.494;2022-12-07T01:15:17;7.50;99.90
13808;DHT22;40769;51.512;5.494;2022-12-07T01:17:43;7.50;99.90
13808;DHT22;40769;51.512;5.494;2022-12-07T01:20:09;7.40;99.90
13808;DHT22;40769;51.512;5.494;2022-12-07T01:22:40;7.40;99.90
13808;DHT22;40769;51.512;5.494;2022-12-07T01:25:07;7.30;99.90
13808;DHT22;40769;51.512;5.494;2022-12-07T01:27:34;7.30;99.90
13808;DHT22;40769;51.512;5.494;2022-12-07T01:30:00;7.30;99.90
13808;DHT22;40769;51.512;5.494;2022-12-07T01:32:27;7.30;99.90
13808;DHT22;40769;51.512;5.494;2022-12-07T01:34:52;7.30;99.90
13808;DHT22;40769;51.512;5.494;2022-12-07T01:37:18;7.20;99.90
13808;DHT22;40769;51.512;5.494;2022-12-07T01:39:43;7.20;99.90
13808;DHT22;40769;51.512;5.494;2022-12-07T01:42:12;7.30;99.90
13808;DHT22;40769;51.512;5.494;2022-12-07T01:47:42;8.20;99.90
13808;DHT22;40769;51.512;5.494;2022-12-07T01:50:09;7.40;99.90
13808;DHT22;40769;51.512;5.494;2022-12-07T01:52:36;7.50;99.90
13808;DHT22;40769;51.512;5.494;2022-12-07T01:55:06;7.40;99.90
13808;DHT22;40769;51.512;5.494;2022-12-07T01:57:34;7.50;99.90
13808;DHT22;40769;51.512;5.494;2022-12-07T02:00:02;7.50;99.90
13808;DHT22;40769;51.512;5.494;2022-12-07T02:02:47;7.50;99.90
13808;DHT22;40769;51.512;5.494;2022-12-07T02:05:14;7.50;99.90
13808;DHT22;40769;51.512;5.494;2022-12-07T02:07:40;7.50;99.90
13808;DHT22;40769;51.512;5.494;2022-12-07T02:12:43;7.60;99.90
13808;DHT22;40769;51.512;5.494;2022-12-07T02:15:11;7.60;99.90
13808;DHT22;40769;51.512;5.494;2022-12-07T02:20:22;7.60;99.90
13808;DHT22;40769;51.512;5.494;2022-12-07T02:28:35;7.60;99.90
13808;DHT22;40769;51.512;5.494;2022-12-07T02:31:11;7.60;99.90
13808;DHT22;40769;51.512;5.494;2022-12-07T02:33:43;7.60;99.90
13808;DHT22;40769;51.512;5.494;2022-12-07T02:36:27;7.60;99.90
13808;DHT22;40769;51.512;5.494;2022-12-07T02:39:06;7.50;99.90
13808;DHT22;40769;51.512;5.494;2022-12-07T02:41:47;7.40;99.90
13808;DHT22;40769;51.512;5.494;2022-12-07T02:44:22;7.40;99.90
13808;DHT22;40769;51.512;5.494;2022-12-07T02:46:55;7.30;99.90
13808;DHT22;40769;51.512;5.494;2022-12-07T02:49:22;7.30;99.90
13808;DHT22;40769;51.512;5.494;2022-12-07T02:51:58;7.20;99.90
13808;DHT22;40769;51.512;5.494;2022-12-07T02:54:24;7.10;99.90
13808;DHT22;40769;51.512;5.494;2022-12-07T03:11:00;7.10;99.90
13808;DHT22;40769;51.512;5.494;2022-12-07T03:16:12;7.30;99.90
13808;DHT22;40769;51.512;5.494;2022-12-07T03:21:27;7.20;99.90
13808;DHT22;40769;51.512;5.494;2022-12-07T03:23:59;7.20;99.90
13808;DHT22;40769;51.512;5.494;2022-12-07T03:26:32;7.20;99.90
13808;DHT22;40769;51.512;5.494;2022-12-07T03:29:02;7.40;99.90
13808;DHT22;40769;51.512;5.494;2022-12-07T03:31:33;7.30;99.90
13808;DHT22;40769;51.512;5.494;2022-12-07T03:36:53;7.30;99.90
13808;DHT22;40769;51.512;5.494;2022-12-07T03:39:33;7.20;99.90
13808;DHT22;40769;51.512;5.494;2022-12-07T03:42:04;7.20;99.90
13808;DHT22;40769;51.512;5.494;2022-12-07T03:44:31;7.30;99.90
13808;DHT22;40769;51.512;5.494;2022-12-07T03:49:40;7.30;99.90
13808;DHT22;40769;51.512;5.494;2022-12-07T03:54:52;7.30;99.90
13808;DHT22;40769;51.512;5.494;2022-12-07T03:57:20;7.30;99.90
13808;DHT22;40769;51.512;5.494;2022-12-07T03:59:47;7.40;99.90
13808;DHT22;40769;51.512;5.494;2022-12-07T04:02:13;7.40;99.90
13808;DHT22;40769;51.512;5.494;2022-12-07T04:04:40;7.40;99.90
13808;DHT22;40769;51.512;5.494;2022-12-07T04:07:07;7.40;99.90
13808;DHT22;40769;51.512;5.494;2022-12-07T04:09:32;7.40;99.90
13808;DHT22;40769;51.512;5.494;2022-12-07T04:11:58;7.40;99.90
13808;DHT22;40769;51.512;5.494;2022-12-07T04:14:23;7.60;99.90
13808;DHT22;40769;51.512;5.494;2022-12-07T04:16:50;7.50;99.90
13808;DHT22;40769;51.512;5.494;2022-12-07T04:19:20;7.50;99.90
13808;DHT22;40769;51.512;5.494;2022-12-07T04:21:47;7.50;99.90
13808;DHT22;40769;51.512;5.494;2022-12-07T04:24:13;7.50;99.90
13808;DHT22;40769;51.512;5.494;2022-12-07T04:26:40;7.50;99.90
13808;DHT22;40769;51.512;5.494;2022-12-07T04:29:06;7.50;99.90
13808;DHT22;40769;51.512;5.494;2022-12-07T04:31:31;7.50;99.90
13808;DHT22;40769;51.512;5.494;2022-12-07T04:33:57;7.50;99.90
13808;DHT22;40769;51.512;5.494;2022-12-07T04:36:23;7.50;99.90
13808;DHT22;40769;51.512;5.494;2022-12-07T04:38:48;7.50;99.90
13808;DHT22;40769;51.512;5.494;2022-12-07T04:41:14;7.60;99.90
13808;DHT22;40769;51.512;5.494;2022-12-07T04:43:39;7.50;99.90
13808;DHT22;40769;51.512;5.494;2022-12-07T04:46:05;7.60;99.90
13808;DHT22;40769;51.512;5.494;2022-12-07T04:48:31;7.60;99.90
13808;DHT22;40769;51.512;5.494;2022-12-07T04:50:56;7.60;99.90
13808;DHT22;40769;51.512;5.494;2022-12-07T04:53:22;7.60;99.90
13808;DHT22;40769;51.512;5.494;2022-12-07T04:55:48;7.60;99.90
13808;DHT22;40769;51.512;5.494;2022-12-07T04:58:14;7.70;99.90
13808;DHT22;40769;51.512;5.494;2022-12-07T05:00:40;7.80;99.90
13808;DHT22;40769;51.512;5.494;2022-12-07T05:03:06;7.70;99.90
13808;DHT22;40769;51.512;5.494;2022-12-07T05:05:31;7.70;99.90
13808;DHT22;40769;51.512;5.494;2022-12-07T05:07:57;7.70;99.90
13808;DHT22;40769;51.512;5.494;2022-12-07T05:10:23;7.70;99.90
13808;DHT22;40769;51.512;5.494;2022-12-07T05:12:49;7.70;99.90
13808;DHT22;40769;51.512;5.494;2022-12-07T05:15:15;7.60;99.90
13808;DHT22;40769;51.512;5.494;2022-12-07T05:17:41;7.60;99.90
13808;DHT22;40769;51.512;5.494;2022-12-07T05:20:08;7.50;99.90
13808;DHT22;40769;51.512;5.494;2022-12-07T05:22:34;7.50;99.90
13808;DHT22;40769;51.512;5.494;2022-12-07T05:24:59;7.30;99.90
13808;DHT22;40769;51.512;5.494;2022-12-07T05:27:25;7.50;99.90
13808;DHT22;40769;51.512;5.494;2022-12-07T05:29:51;7.50;99.90
13808;DHT22;40769;51.512;5.494;2022-12-07T05:32:17;7.60;99.90
13808;DHT22;40769;51.512;5.494;2022-12-07T05:34:42;7.50;99.90
13808;DHT22;40769;51.512;5.494;2022-12-07T05:37:08;7.50;99.90
13808;DHT22;40769;51.512;5.494;2022-12-07T05:39:34;7.50;99.90
13808;DHT22;40769;51.512;5.494;2022-12-07T05:41:59;7.50;99.90
13808;DHT22;40769;51.512;5.494;2022-12-07T05:44:40;7.50;99.90
13808;DHT22;40769;51.512;5.494;2022-12-07T05:47:06;7.50;99.90
13808;DHT22;40769;51.512;5.494;2022-12-07T05:49:33;7.50;99.90
13808;DHT22;40769;51.512;5.494;2022-12-07T05:51:58;7.40;99.90
13808;DHT22;40769;51.512;5.494;2022-12-07T05:54:24;7.40;99.90
13808;DHT22;40769;51.512;5.494;2022-12-07T05:56:50;7.40;99.90
13808;DHT22;40769;51.512;5.494;2022-12-07T05:59:16;7.50;99.90
13808;DHT22;40769;51.512;5.494;2022-12-07T06:01:59;7.40;99.90
13808;DHT22;40769;51.512;5.494;2022-12-07T06:04:27;7.30;99.90
13808;DHT22;40769;51.512;5.494;2022-12-07T06:06:53;7.30;99.90
13808;DHT22;40769;51.512;5.494;2022-12-07T06:09:21;7.20;99.90
13808;DHT22;40769;51.512;5.494;2022-12-07T06:11:48;7.20;99.90
13808;DHT22;40769;51.512;5.494;2022-12-07T06:14:32;7.30;99.90
13808;DHT22;40769;51.512;5.494;2022-12-07T06:16:58;7.30;99.90
13808;DHT22;40769;51.512;5.494;2022-12-07T06:19:24;7.20;99.90
13808;DHT22;40769;51.512;5.494;2022-12-07T06:21:50;7.20;99.90
13808;DHT22;40769;51.512;5.494;2022-12-07T06:24:16;7.00;99.90
13808;DHT22;40769;51.512;5.494;2022-12-07T06:26:42;7.00;99.90
13808;DHT22;40769;51.512;5.494;2022-12-07T06:29:09;7.00;99.90
13808;DHT22;40769;51.512;5.494;2022-12-07T06:31:35;7.10;99.90
13808;DHT22;40769;51.512;5.494;2022-12-07T06:34:07;7.20;99.90
13808;DHT22;40769;51.512;5.494;2022-12-07T06:36:34;7.20;99.90
13808;DHT22;40769;51.512;5.494;2022-12-07T06:38:59;7.10;99.90
13808;DHT22;40769;51.512;5.494;2022-12-07T06:41:25;7.20;99.90
13808;DHT22;40769;51.512;5.494;2022-12-07T06:43:51;6.90;99.90
13808;DHT22;40769;51.512;5.494;2022-12-07T06:46:17;8.10;99.90
13808;DHT22;40769;51.512;5.494;2022-12-07T06:48:43;6.70;99.90
13808;DHT22;40769;51.512;5.494;2022-12-07T06:51:09;6.70;99.90
13808;DHT22;40769;51.512;5.494;2022-12-07T06:53:36;6.70;99.90
13808;DHT22;40769;51.512;5.494;2022-12-07T06:56:02;6.70;99.90
13808;DHT22;40769;51.512;5.494;2022-12-07T06:58:28;6.80;99.90
13808;DHT22;40769;51.512;5.494;2022-12-07T07:00:53;6.90;99.90
13808;DHT22;40769;51.512;5.494;2022-12-07T07:03:19;6.90;99.90
13808;DHT22;40769;51.512;5.494;2022-12-07T07:05:45;6.90;99.90
13808;DHT22;40769;51.512;5.494;2022-12-07T07:08:11;6.90;99.90
13808;DHT22;40769;51.512;5.494;2022-12-07T07:10:37;7.00;99.90
13808;DHT22;40769;51.512;5.494;2022-12-07T07:13:03;7.00;99.90
13808;DHT22;40769;51.512;5.494;2022-12-07T07:15:29;7.10;99.90
13808;DHT22;40769;51.512;5.494;2022-12-07T07:17:55;7.10;99.90
13808;DHT22;40769;51.512;5.494;2022-12-07T07:20:21;7.10;99.90
13808;DHT22;40769;51.512;5.494;2022-12-07T07:22:46;7.00;99.90
13808;DHT22;40769;51.512;5.494;2022-12-07T07:25:12;7.10;99.90
13808;DHT22;40769;51.512;5.494;2022-12-07T07:27:38;7.10;99.90
13808;DHT22;40769;51.512;5.494;2022-12-07T07:30:04;7.20;99.90
13808;DHT22;40769;51.512;5.494;2022-12-07T07:32:30;7.20;99.90
13808;DHT22;40769;51.512;5.494;2022-12-07T07:34:56;7.20;99.90
13808;DHT22;40769;51.512;5.494;2022-12-07T07:37:21;7.20;99.90
13808;DHT22;40769;51.512;5.494;2022-12-07T07:39:47;7.20;99.90
13808;DHT22;40769;51.512;5.494;2022-12-07T07:42:12;7.20;99.90
13808;DHT22;40769;51.512;5.494;2022-12-07T07:44:38;7.20;99.90
13808;DHT22;40769;51.512;5.494;2022-12-07T07:47:04;7.30;99.90
13808;DHT22;40769;51.512;5.494;2022-12-07T07:49:29;7.20;99.90
13808;DHT22;40769;51.512;5.494;2022-12-07T07:51:55;7.20;99.90
13808;DHT22;40769;51.512;5.494;2022-12-07T07:54:20;7.20;99.90
13808;DHT22;40769;51.512;5.494;2022-12-07T07:56:46;7.30;99.90
13808;DHT22;40769;51.512;5.494;2022-12-07T07:59:12;7.30;99.90
13808;DHT22;40769;51.512;5.494;2022-12-07T08:01:37;7.40;99.90
13808;DHT22;40769;51.512;5.494;2022-12-07T08:04:03;7.40;99.90
13808;DHT22;40769;51.512;5.494;2022-12-07T08:06:28;7.30;99.90
13808;DHT22;40769;51.512;5.494;2022-12-07T08:08:54;7.30;99.90
13808;DHT22;40769;51.512;5.494;2022-12-07T08:11:20;7.40;99.90
13808;DHT22;40769;51.512;5.494;2022-12-07T08:13:46;7.40;99.90
13808;DHT22;40769;51.512;5.494;2022-12-07T08:16:17;7.40;99.90
13808;DHT22;40769;51.512;5.494;2022-12-07T08:18:43;7.50;99.90
13808;DHT22;40769;51.512;5.494;2022-12-07T08:21:13;7.40;99.90
13808;DHT22;40769;51.512;5.494;2022-12-07T08:23:39;7.50;99.90
13808;DHT22;40769;51.512;5.494;2022-12-07T08:26:07;7.40;99.90
13808;DHT22;40769;51.512;5.494;2022-12-07T08:28:33;7.50;99.90
13808;DHT22;40769;51.512;5.494;2022-12-07T08:31:04;7.50;99.90
13808;DHT22;40769;51.512;5.494;2022-12-07T08:33:30;7.50;99.90
13808;DHT22;40769;51.512;5.494;2022-12-07T08:36:04;7.50;99.90
13808;DHT22;40769;51.512;5.494;2022-12-07T08:38:30;7.50;99.90
13808;DHT22;40769;51.512;5.494;2022-12-07T08:40:57;7.60;99.90
13808;DHT22;40769;51.512;5.494;2022-12-07T08:43:23;7.60;99.90
13808;DHT22;40769;51.512;5.494;2022-12-07T08:45:53;8.10;99.90
13808;DHT22;40769;51.512;5.494;2022-12-07T08:48:21;7.80;99.90
13808;DHT22;40769;51.512;5.494;2022-12-07T08:50:50;7.80;99.90
13808;DHT22;40769;51.512;5.494;2022-12-07T08:53:16;8.90;99.90
13808;DHT22;40769;51.512;5.494;2022-12-07T08:55:44;8.00;99.90
13808;DHT22;40769;51.512;5.494;2022-12-07T08:58:10;8.10;99.90
13808;DHT22;40769;51.512;5.494;2022-12-07T09:00:36;8.10;99.90
13808;DHT22;40769;51.512;5.494;2022-12-07T09:03:01;8.10;99.90
13808;DHT22;40769;51.512;5.494;2022-12-07T09:05:27;8.60;99.90
13808;DHT22;40769;51.512;5.494;2022-12-07T09:07:56;8.20;99.90
13808;DHT22;40769;51.512;5.494;2022-12-07T09:10:23;8.30;99.90
13808;DHT22;40769;51.512;5.494;2022-12-07T09:12:49;8.50;99.90
13808;DHT22;40769;51.512;5.494;2022-12-07T09:15:14;8.40;99.90
13808;DHT22;40769;51.512;5.494;2022-12-07T09:17:40;8.50;99.90
13808;DHT22;40769;51.512;5.494;2022-12-07T09:20:06;8.50;99.90
13808;DHT22;40769;51.512;5.494;2022-12-07T09:22:32;8.50;99.90
13808;DHT22;40769;51.512;5.494;2022-12-07T09:24:59;8.60;99.90
13808;DHT22;40769;51.512;5.494;2022-12-07T09:27:25;9.30;99.90
13808;DHT22;40769;51.512;5.494;2022-12-07T09:29:51;7.80;99.90
13808;DHT22;40769;51.512;5.494;2022-12-07T09:32:17;8.70;99.90
13808;DHT22;40769;51.512;5.494;2022-12-07T09:34:42;8.80;99.90
13808;DHT22;40769;51.512;5.494;2022-12-07T09:37:08;8.70;99.90
13808;DHT22;40769;51.512;5.494;2022-12-07T09:39:34;8.80;99.90
13808;DHT22;40769;51.512;5.494;2022-12-07T09:42:03;8.90;99.90
13808;DHT22;40769;51.512;5.494;2022-12-07T09:44:29;8.90;99.90
13808;DHT22;40769;51.512;5.494;2022-12-07T09:46:55;8.90;99.90
13808;DHT22;40769;51.512;5.494;2022-12-07T09:49:23;9.00;99.90
13808;DHT22;40769;51.512;5.494;2022-12-07T09:52:20;9.00;99.90
13808;DHT22;40769;51.512;5.494;2022-12-07T09:54:50;9.00;99.90
13808;DHT22;40769;51.512;5.494;2022-12-07T09:57:17;9.10;99.90
13808;DHT22;40769;51.512;5.494;2022-12-07T09:59:45;9.10;99.90
13808;DHT22;40769;51.512;5.494;2022-12-07T10:02:34;9.20;99.90
13808;DHT22;40769;51.512;5.494;2022-12-07T10:05:00;9.30;99.90
13808;DHT22;40769;51.512;5.494;2022-12-07T10:07:26;9.40;99.90
13808;DHT22;40769;51.512;5.494;2022-12-07T10:09:54;9.50;99.90
13808;DHT22;40769;51.512;5.494;2022-12-07T10:12:19;9.60;99.90
13808;DHT22;40769;51.512;5.494;2022-12-07T10:15:04;9.60;99.90
13808;DHT22;40769;51.512;5.494;2022-12-07T10:17:39;9.70;99.90
13808;DHT22;40769;51.512;5.494;2022-12-07T10:20:25;9.80;99.90
13808;DHT22;40769;51.512;5.494;2022-12-07T10:22:59;10.00;99.90
13808;DHT22;40769;51.512;5.494;2022-12-07T10:25:28;10.10;99.90
13808;DHT22;40769;51.512;5.494;2022-12-07T10:28:12;10.30;99.90
13808;DHT22;40769;51.512;5.494;2022-12-07T10:30:49;10.50;99.90
13808;DHT22;40769;51.512;5.494;2022-12-07T10:33:29;10.60;99.90
13808;DHT22;40769;51.512;5.494;2022-12-07T10:35:56;10.70;99.90
13808;DHT22;40769;51.512;5.494;2022-12-07T10:38:22;10.70;99.90
13808;DHT22;40769;51.512;5.494;2022-12-07T10:41:03;10.70;99.90
13808;DHT22;40769;51.512;5.494;2022-12-07T10:43:29;10.60;99.90
13808;DHT22;40769;51.512;5.494;2022-12-07T10:54:27;10.30;99.90
13808;DHT22;40769;51.512;5.494;2022-12-07T11:21:26;11.10;99.90
13808;DHT22;40769;51.512;5.494;2022-12-07T11:24:08;11.30;99.90
13808;DHT22;40769;51.512;5.494;2022-12-07T11:37:59;11.40;99.90
13808;DHT22;40769;51.512;5.494;2022-12-07T11:40:30;11.40;99.90
13808;DHT22;40769;51.512;5.494;2022-12-07T11:43:20;11.30;99.90
13808;DHT22;40769;51.512;5.494;2022-12-07T11:45:58;11.30;99.90
13808;DHT22;40769;51.512;5.494;2022-12-07T11:48:34;11.20;99.90
13808;DHT22;40769;51.512;5.494;2022-12-07T11:51:02;11.20;99.90
13808;DHT22;40769;51.512;5.494;2022-12-07T11:53:55;11.10;99.90
13808;DHT22;40769;51.512;5.494;2022-12-07T11:56:25;11.10;99.90
13808;DHT22;40769;51.512;5.494;2022-12-07T11:59:10;11.10;99.90
13808;DHT22;40769;51.512;5.494;2022-12-07T12:06:43;11.30;99.90
13808;DHT22;40769;51.512;5.494;2022-12-07T12:12:04;11.10;99.90
13808;DHT22;40769;51.512;5.494;2022-12-07T12:17:51;11.10;99.90
13808;DHT22;40769;51.512;5.494;2022-12-07T12:25:40;11.00;99.90
13808;DHT22;40769;51.512;5.494;2022-12-07T12:28:20;11.00;99.90
13808;DHT22;40769;51.512;5.494;2022-12-07T12:34:04;11.20;99.90
13808;DHT22;40769;51.512;5.494;2022-12-07T12:36:44;11.20;99.90
13808;DHT22;40769;51.512;5.494;2022-12-07T12:39:15;11.30;99.90
13808;DHT22;40769;51.512;5.494;2022-12-07T12:51:52;11.50;99.90
13808;DHT22;40769;51.512;5.494;2022-12-07T13:01:47;11.30;99.90
13808;DHT22;40769;51.512;5.494;2022-12-07T13:04:24;11.10;99.90
13808;DHT22;40769;51.512;5.494;2022-12-07T13:06:50;11.00;99.90
13808;DHT22;40769;51.512;5.494;2022-12-07T13:09:32;10.90;99.90
13808;DHT22;40769;51.512;5.494;2022-12-07T13:12:11;10.90;99.90
13808;DHT22;40769;51.512;5.494;2022-12-07T13:15:23;10.90;99.90
13808;DHT22;40769;51.512;5.494;2022-12-07T13:20:00;10.70;99.90
13808;DHT22;40769;51.512;5.494;2022-12-07T13:25:12;10.70;99.90
13808;DHT22;40769;51.512;5.494;2022-12-07T13:27:41;10.70;99.90
13808;DHT22;40769;51.512;5.494;2022-12-07T13:30:19;10.60;99.90
13808;DHT22;40769;51.512;5.494;2022-12-07T13:32:55;10.70;99.90
13808;DHT22;40769;51.512;5.494;2022-12-07T13:35:33;10.70;99.90
13808;DHT22;40769;51.512;5.494;2022-12-07T13:38:02;10.70;99.90
13808;DHT22;40769;51.512;5.494;2022-12-07T13:40:28;10.80;99.90
13808;DHT22;40769;51.512;5.494;2022-12-07T13:43:02;10.80;99.90
13808;DHT22;40769;51.512;5.494;2022-12-07T13:45:32;10.90;99.90
13808;DHT22;40769;51.512;5.494;2022-12-07T13:48:18;11.90;99.90
13808;DHT22;40769;51.512;5.494;2022-12-07T13:50:53;10.90;99.90
13808;DHT22;40769;51.512;5.494;2022-12-07T13:53:18;10.80;99.90
13808;DHT22;40769;51.512;5.494;2022-12-07T13:55:45;11.00;99.90
13808;DHT22;40769;51.512;5.494;2022-12-07T13:58:14;10.80;99.90
13808;DHT22;40769;51.512;5.494;2022-12-07T14:00:41;10.60;99.90
13808;DHT22;40769;51.512;5.494;2022-12-07T14:05:40;10.40;99.90
13808;DHT22;40769;51.512;5.494;2022-12-07T14:15:51;10.50;99.90
13808;DHT22;40769;51.512;5.494;2022-12-07T14:18:43;10.60;99.90
13808;DHT22;40769;51.512;5.494;2022-12-07T14:23:35;10.80;99.90
13808;DHT22;40769;51.512;5.494;2022-12-07T14:26:15;10.90;99.90
13808;DHT22;40769;51.512;5.494;2022-12-07T14:28:43;10.90;99.90
13808;DHT22;40769;51.512;5.494;2022-12-07T14:31:17;10.90;99.90
13808;DHT22;40769;51.512;5.494;2022-12-07T14:33:43;10.90;99.90
13808;DHT22;40769;51.512;5.494;2022-12-07T14:36:10;10.80;99.90
13808;DHT22;40769;51.512;5.494;2022-12-07T14:38:36;10.70;99.90
13808;DHT22;40769;51.512;5.494;2022-12-07T14:41:04;10.60;99.90
13808;DHT22;40769;51.512;5.494;2022-12-07T14:43:48;10.60;99.90
13808;DHT22;40769;51.512;5.494;2022-12-07T14:46:14;10.40;99.90
13808;DHT22;40769;51.512;5.494;2022-12-07T14:48:40;11.10;99.90
13808;DHT22;40769;51.512;5.494;2022-12-07T14:51:09;10.30;99.90
13808;DHT22;40769;51.512;5.494;2022-12-07T14:53:40;10.20;99.90
13808;DHT22;40769;51.512;5.494;2022-12-07T14:56:07;10.10;99.90
13808;DHT22;40769;51.512;5.494;2022-12-07T14:58:32;10.00;99.90
13808;DHT22;40769;51.512;5.494;2022-12-07T15:00:59;10.00;99.90
13808;DHT22;40769;51.512;5.494;2022-12-07T15:03:24;10.00;99.90
13808;DHT22;40769;51.512;5.494;2022-12-07T15:05:50;9.90;99.90
13808;DHT22;40769;51.512;5.494;2022-12-07T15:08:15;9.90;99.90
13808;DHT22;40769;51.512;5.494;2022-12-07T15:10:41;9.90;99.90
13808;DHT22;40769;51.512;5.494;2022-12-07T15:13:07;9.90;99.90
13808;DHT22;40769;51.512;5.494;2022-12-07T15:15:53;9.90;99.90
13808;DHT22;40769;51.512;5.494;2022-12-07T15:18:20;9.90;99.90
13808;DHT22;40769;51.512;5.494;2022-12-07T15:20:46;9.90;99.90
13808;DHT22;40769;51.512;5.494;2022-12-07T15:23:12;9.90;99.90
13808;DHT22;40769;51.512;5.494;2022-12-07T15:25:47;9.80;99.90
13808;DHT22;40769;51.512;5.494;2022-12-07T15:28:14;9.80;99.90
13808;DHT22;40769;51.512;5.494;2022-12-07T15:30:40;9.80;99.90
13808;DHT22;40769;51.512;5.494;2022-12-07T15:33:07;9.80;99.90
13808;DHT22;40769;51.512;5.494;2022-12-07T15:35:33;9.80;99.90
13808;DHT22;40769;51.512;5.494;2022-12-07T15:37:59;9.80;99.90
13808;DHT22;40769;51.512;5.494;2022-12-07T15:40:24;9.80;99.90
13808;DHT22;40769;51.512;5.494;2022-12-07T15:42:50;9.80;99.90
13808;DHT22;40769;51.512;5.494;2022-12-07T15:45:16;9.60;99.90
13808;DHT22;40769;51.512;5.494;2022-12-07T15:47:43;9.70;99.90
13808;DHT22;40769;51.512;5.494;2022-12-07T15:50:13;9.70;99.90
13808;DHT22;40769;51.512;5.494;2022-12-07T15:52:39;9.70;99.90
13808;DHT22;40769;51.512;5.494;2022-12-07T15:55:05;9.70;99.90
13808;DHT22;40769;51.512;5.494;2022-12-07T15:57:31;9.70;99.90
13808;DHT22;40769;51.512;5.494;2022-12-07T15:59:58;9.70;99.90
13808;DHT22;40769;51.512;5.494;2022-12-07T16:02:24;9.70;99.90
13808;DHT22;40769;51.512;5.494;2022-12-07T16:04:50;9.70;99.90
13808;DHT22;40769;51.512;5.494;2022-12-07T16:07:16;9.70;99.90
13808;DHT22;40769;51.512;5.494;2022-12-07T16:09:43;9.70;99.90
13808;DHT22;40769;51.512;5.494;2022-12-07T16:12:09;9.70;99.90
13808;DHT22;40769;51.512;5.494;2022-12-07T16:14:36;9.70;99.90
13808;DHT22;40769;51.512;5.494;2022-12-07T16:17:02;9.70;99.90
13808;DHT22;40769;51.512;5.494;2022-12-07T16:19:27;9.70;99.90
13808;DHT22;40769;51.512;5.494;2022-12-07T16:21:53;9.70;99.90
13808;DHT22;40769;51.512;5.494;2022-12-07T16:24:19;9.70;99.90
13808;DHT22;40769;51.512;5.494;2022-12-07T16:26:45;9.70;99.90
13808;DHT22;40769;51.512;5.494;2022-12-07T16:29:14;9.70;99.90
13808;DHT22;40769;51.512;5.494;2022-12-07T16:31:39;9.60;99.90
13808;DHT22;40769;51.512;5.494;2022-12-07T16:34:05;9.40;99.90
13808;DHT22;40769;51.512;5.494;2022-12-07T16:36:31;9.30;99.90
13808;DHT22;40769;51.512;5.494;2022-12-07T16:38:58;9.20;99.90
13808;DHT22;40769;51.512;5.494;2022-12-07T16:41:24;9.20;99.90
13808;DHT22;40769;51.512;5.494;2022-12-07T16:43:50;9.20;99.90
13808;DHT22;40769;51.512;5.494;2022-12-07T16:46:16;9.20;99.90
13808;DHT22;40769;51.512;5.494;2022-12-07T16:48:43;9.30;99.90
13808;DHT22;40769;51.512;5.494;2022-12-07T16:51:10;9.30;99.90
13808;DHT22;40769;51.512;5.494;2022-12-07T16:53:38;9.30;99.90
13808;DHT22;40769;51.512;5.494;2022-12-07T16:56:13;9.30;99.90
13808;DHT22;40769;51.512;5.494;2022-12-07T16:58:42;9.30;99.90
13808;DHT22;40769;51.512;5.494;2022-12-07T17:01:16;9.30;99.90
13808;DHT22;40769;51.512;5.494;2022-12-07T17:03:43;9.30;99.90
13808;DHT22;40769;51.512;5.494;2022-12-07T17:06:35;9.30;99.90
13808;DHT22;40769;51.512;5.494;2022-12-07T17:09:00;9.30;99.90
13808;DHT22;40769;51.512;5.494;2022-12-07T17:11:28;9.30;99.90
13808;DHT22;40769;51.512;5.494;2022-12-07T17:13:56;9.60;99.90
13808;DHT22;40769;51.512;5.494;2022-12-07T17:16:41;9.30;99.90
13808;DHT22;40769;51.512;5.494;2022-12-07T17:19:08;9.30;99.90
13808;DHT22;40769;51.512;5.494;2022-12-07T17:21:34;9.20;99.90
13808;DHT22;40769;51.512;5.494;2022-12-07T17:24:02;9.10;99.90
13808;DHT22;40769;51.512;5.494;2022-12-07T17:26:29;9.00;99.90
13808;DHT22;40769;51.512;5.494;2022-12-07T17:28:55;8.90;99.90
13808;DHT22;40769;51.512;5.494;2022-12-07T17:31:22;8.80;99.90
13808;DHT22;40769;51.512;5.494;2022-12-07T17:33:48;8.80;99.90
13808;DHT22;40769;51.512;5.494;2022-12-07T17:36:21;8.80;99.90
13808;DHT22;40769;51.512;5.494;2022-12-07T17:38:47;8.80;99.90
13808;DHT22;40769;51.512;5.494;2022-12-07T17:41:15;8.90;99.90
13808;DHT22;40769;51.512;5.494;2022-12-07T17:44:01;8.90;99.90
13808;DHT22;40769;51.512;5.494;2022-12-07T17:46:27;8.90;99.90
13808;DHT22;40769;51.512;5.494;2022-12-07T17:48:56;9.00;99.90
13808;DHT22;40769;51.512;5.494;2022-12-07T17:51:22;9.10;99.90
13808;DHT22;40769;51.512;5.494;2022-12-07T17:54:06;9.10;99.90
13808;DHT22;40769;51.512;5.494;2022-12-07T17:56:32;9.10;99.90
13808;DHT22;40769;51.512;5.494;2022-12-07T17:58:58;9.10;99.90
13808;DHT22;40769;51.512;5.494;2022-12-07T18:01:23;9.00;99.90
13808;DHT22;40769;51.512;5.494;2022-12-07T18:03:49;8.90;99.90
13808;DHT22;40769;51.512;5.494;2022-12-07T18:06:14;8.90;99.90
13808;DHT22;40769;51.512;5.494;2022-12-07T18:08:40;8.80;99.90
13808;DHT22;40769;51.512;5.494;2022-12-07T18:11:06;8.80;99.90
13808;DHT22;40769;51.512;5.494;2022-12-07T18:13:33;8.90;99.90